createdAt,value
2023-04-27T00:00:42.901Z,3.70
2023-04-27T00:02:46.572Z,3.00
2023-04-27T00:04:50.405Z,3.47
2023-04-27T00:06:53.982Z,2.90
2023-04-27T00:08:57.311Z,3.80
2023-04-27T00:11:01.277Z,3.33
2023-04-27T00:13:06.251Z,3.30
2023-04-27T00:15:11.166Z,4.00
2023-04-27T00:17:14.523Z,2.47
2023-04-27T00:19:17.881Z,3.53
2023-04-27T00:21:21.468Z,3.40
2023-04-27T00:23:24.972Z,3.60
2023-04-27T00:25:28.456Z,4.00
2023-04-27T00:27:31.935Z,2.90
2023-04-27T00:29:36.679Z,3.23
2023-04-27T00:31:40.150Z,3.30
2023-04-27T00:33:43.603Z,3.40
2023-04-27T00:35:46.970Z,3.60
2023-04-27T00:37:50.878Z,3.40
2023-04-27T00:39:54.241Z,3.03
2023-04-27T00:41:57.636Z,2.73
2023-04-27T00:44:01.030Z,4.00
2023-04-27T00:46:05.942Z,2.57
2023-04-27T00:48:09.658Z,3.50
2023-04-27T00:50:13.311Z,3.30
2023-04-27T00:52:16.690Z,3.63
2023-04-27T00:54:21.918Z,4.17
2023-04-27T00:56:25.404Z,3.60
2023-04-27T00:58:28.871Z,3.10
2023-04-27T01:00:32.402Z,3.47
2023-04-27T01:02:40.945Z,4.43
2023-04-27T01:04:44.487Z,3.40
2023-04-27T01:06:49.262Z,3.47
2023-04-27T01:08:52.767Z,3.83
2023-04-27T01:10:57.751Z,4.40
2023-04-27T01:13:01.216Z,3.90
2023-04-27T01:15:05.141Z,3.80
2023-04-27T01:17:09.463Z,4.17
2023-04-27T01:19:16.721Z,5.10
2023-04-27T01:21:20.189Z,3.60
2023-04-27T01:23:24.893Z,4.03
2023-04-27T01:25:28.318Z,3.70
2023-04-27T01:27:31.881Z,4.17
2023-04-27T01:29:35.260Z,4.47
2023-04-27T01:31:39.031Z,4.43
2023-04-27T01:33:42.752Z,4.27
2023-04-27T01:35:46.246Z,3.60
2023-04-27T01:37:49.652Z,3.83
2023-04-27T01:39:55.632Z,3.93
2023-04-27T01:41:59.026Z,5.10
2023-04-27T01:44:02.447Z,5.20
2023-04-27T01:46:09.166Z,4.17
2023-04-27T01:48:12.758Z,5.10
2023-04-27T01:50:16.032Z,4.07
2023-04-27T01:52:19.330Z,3.60
2023-04-27T01:56:45.219Z,3.23
2023-04-27T01:58:48.726Z,3.67
2023-04-27T02:03:13.313Z,3.67
2023-04-27T02:05:16.943Z,4.93
2023-04-27T02:07:20.550Z,3.73
2023-04-27T02:09:24.597Z,3.87
2023-04-27T02:11:28.118Z,4.70
2023-04-27T02:13:32.851Z,4.07
2023-04-27T02:15:36.616Z,4.60
2023-04-27T02:17:40.044Z,4.50
2023-04-27T02:24:25.687Z,4.27
2023-04-27T02:26:29.505Z,4.70
2023-04-27T02:36:43.483Z,4.03
2023-04-27T02:40:01.045Z,4.60
2023-04-27T02:57:40.302Z,4.17
2023-04-27T03:08:08.951Z,4.50
2023-04-27T03:11:26.931Z,3.93
2023-04-27T03:14:43.718Z,4.20
2023-04-27T03:21:26.780Z,4.13
2023-04-27T03:23:30.201Z,3.77
2023-04-27T03:25:33.525Z,9.67
2023-04-27T03:27:36.871Z,10.37
2023-04-27T03:29:40.392Z,8.60
2023-04-27T03:31:43.741Z,6.90
2023-04-27T03:33:47.162Z,5.80
2023-04-27T03:35:56.562Z,4.67
2023-04-27T03:38:01.444Z,5.20
2023-04-27T03:40:07.422Z,4.90
2023-04-27T03:42:10.951Z,5.50
2023-04-27T03:44:14.330Z,6.00
2023-04-27T03:46:18.603Z,4.67
2023-04-27T03:48:22.480Z,4.70
2023-04-27T03:50:30.201Z,3.90
2023-04-27T03:52:33.777Z,10.13
2023-04-27T03:54:38.692Z,10.47
2023-04-27T03:56:42.183Z,9.20
2023-04-27T03:58:46.790Z,8.73
2023-04-27T04:01:06.470Z,6.23
2023-04-27T04:03:10.250Z,11.67
2023-04-27T04:05:15.327Z,12.50
2023-04-27T04:07:18.786Z,8.43
2023-04-27T04:09:23.830Z,7.73
2023-04-27T04:11:28.898Z,7.30
2023-04-27T04:13:35.981Z,6.17
2023-04-27T04:15:39.627Z,6.37
2023-04-27T04:17:47.364Z,6.03
2023-04-27T04:19:52.260Z,6.10
2023-04-27T04:21:59.739Z,5.50
2023-04-27T04:24:05.871Z,4.80
2023-04-27T04:26:10.519Z,5.77
2023-04-27T04:28:15.464Z,11.67
2023-04-27T04:30:19.604Z,11.13
2023-04-27T04:32:23.054Z,9.10
2023-04-27T04:34:27.238Z,7.93
2023-04-27T04:36:31.165Z,7.30
2023-04-27T04:38:34.592Z,5.77
2023-04-27T04:40:39.865Z,5.07
2023-04-27T04:42:43.214Z,11.33
2023-04-27T04:44:48.139Z,14.80
2023-04-27T04:46:51.943Z,12.60
2023-04-27T04:48:55.652Z,12.07
2023-04-27T04:50:58.988Z,10.83
2023-04-27T04:53:02.444Z,8.37
2023-04-27T04:55:06.739Z,7.73
2023-04-27T04:57:10.456Z,7.20
2023-04-27T04:59:14.089Z,5.30
2023-04-27T05:01:19.388Z,5.50
2023-04-27T05:03:22.877Z,5.70
2023-04-27T05:05:26.454Z,5.93
2023-04-27T05:07:29.741Z,5.37
2023-04-27T05:09:33.318Z,6.80
2023-04-27T05:11:37.927Z,5.70
2023-04-27T05:13:41.261Z,6.30
2023-04-27T05:15:44.598Z,7.20
2023-04-27T05:17:49.335Z,6.00
2023-04-27T05:19:52.706Z,5.63
2023-04-27T05:21:56.159Z,6.40
2023-04-27T05:23:59.457Z,4.27
2023-04-27T05:26:02.910Z,5.90
2023-04-27T05:28:06.208Z,6.33
2023-04-27T05:30:11.075Z,5.70
2023-04-27T05:32:14.337Z,5.47
2023-04-27T05:34:19.136Z,5.30
2023-04-27T05:36:22.436Z,5.10
2023-04-27T05:38:25.867Z,5.33
2023-04-27T05:40:29.585Z,6.73
2023-04-27T05:42:33.007Z,5.30
2023-04-27T05:44:36.562Z,5.30
2023-04-27T05:46:39.894Z,7.00
2023-04-27T05:48:43.327Z,6.30
2023-04-27T05:50:48.004Z,6.53
2023-04-27T05:52:51.342Z,6.60
2023-04-27T05:54:54.629Z,6.43
2023-04-27T05:56:57.986Z,6.50
2023-04-27T05:59:02.670Z,6.03
2023-04-27T06:01:08.928Z,7.10
2023-04-27T06:03:12.569Z,6.83
2023-04-27T06:05:16.149Z,6.23
2023-04-27T06:07:21.408Z,6.03
2023-04-27T06:09:25.277Z,5.23
2023-04-27T06:11:28.760Z,6.27
2023-04-27T06:13:32.554Z,5.97
2023-04-27T06:15:36.217Z,6.50
2023-04-27T06:17:40.362Z,5.73
2023-04-27T06:19:43.660Z,6.00
2023-04-27T06:21:47.003Z,6.23
2023-04-27T06:23:51.859Z,5.47
2023-04-27T06:25:55.182Z,5.30
2023-04-27T06:27:59.419Z,5.60
2023-04-27T06:30:02.829Z,5.60
2023-04-27T06:32:06.989Z,6.00
2023-04-27T06:34:10.376Z,5.00
2023-04-27T06:36:13.685Z,5.10
2023-04-27T06:38:17.011Z,4.67
2023-04-27T06:40:21.893Z,4.50
2023-04-27T06:42:25.306Z,5.40
2023-04-27T06:44:29.907Z,6.80
2023-04-27T06:46:33.350Z,6.60
2023-04-27T06:48:37.051Z,7.80
2023-04-27T06:50:40.678Z,7.57
2023-04-27T06:52:44.078Z,5.93
2023-04-27T06:54:47.484Z,6.47
2023-04-27T06:56:52.202Z,6.20
2023-04-27T06:58:55.511Z,5.80
2023-04-27T07:00:58.948Z,6.17
2023-04-27T07:03:02.552Z,6.10
2023-04-27T07:05:06.545Z,7.33
2023-04-27T07:07:09.951Z,7.00
2023-04-27T07:09:24.037Z,7.00
2023-04-27T07:11:30.699Z,5.80
2023-04-27T07:13:35.476Z,5.10
2023-04-27T07:15:38.826Z,6.70
2023-04-27T07:17:42.453Z,6.70
2023-04-27T07:19:45.844Z,7.43
2023-04-27T07:21:50.083Z,6.87
2023-04-27T07:23:54.395Z,7.20
2023-04-27T07:25:59.281Z,7.07
2023-04-27T07:28:02.724Z,6.60
2023-04-27T07:30:10.069Z,5.60
2023-04-27T07:32:13.564Z,6.10
2023-04-27T07:34:17.770Z,6.40
2023-04-27T07:36:21.901Z,6.63
2023-04-27T07:38:25.495Z,7.47
2023-04-27T07:40:28.863Z,7.20
2023-04-27T07:42:32.279Z,6.77
2023-04-27T07:44:36.367Z,5.40
2023-04-27T07:46:41.227Z,6.40
2023-04-27T07:48:44.952Z,4.97
2023-04-27T07:50:48.314Z,8.27
2023-04-27T07:52:51.829Z,6.27
2023-04-27T07:54:55.183Z,5.10
2023-04-27T07:56:58.564Z,6.40
2023-04-27T07:59:02.087Z,8.50
2023-04-27T08:01:05.508Z,6.97
2023-04-27T08:03:10.476Z,7.00
2023-04-27T08:05:15.000Z,5.80
2023-04-27T08:07:19.635Z,5.33
2023-04-27T08:09:23.184Z,8.70
2023-04-27T08:11:26.537Z,6.67
2023-04-27T08:13:29.906Z,7.50
2023-04-27T08:15:33.184Z,8.53
2023-04-27T08:17:37.188Z,7.10
2023-04-27T08:19:42.177Z,8.23
2023-04-27T08:21:45.926Z,7.17
2023-04-27T08:23:49.834Z,6.23
2023-04-27T08:25:53.208Z,5.13
2023-04-27T08:27:56.567Z,5.90
2023-04-27T08:30:01.004Z,6.00
2023-04-27T08:32:06.004Z,6.60
2023-04-27T08:34:09.480Z,6.30
2023-04-27T08:36:14.205Z,6.60
2023-04-27T08:38:17.563Z,6.17
2023-04-27T08:40:21.448Z,6.07
2023-04-27T08:42:24.794Z,6.30
2023-04-27T08:44:28.293Z,5.40
2023-04-27T08:46:32.570Z,6.30
2023-04-27T08:48:36.201Z,6.33
2023-04-27T08:50:44.809Z,5.50
2023-04-27T08:52:50.695Z,5.30
2023-04-27T08:54:55.176Z,6.20
2023-04-27T08:56:58.545Z,5.50
2023-04-27T08:59:04.158Z,5.70
2023-04-27T09:01:09.472Z,6.90
2023-04-27T09:03:23.012Z,6.03
2023-04-27T09:05:27.033Z,5.90
2023-04-27T09:07:31.111Z,5.00
2023-04-27T09:09:35.893Z,6.57
2023-04-27T09:11:40.361Z,6.70
2023-04-27T09:13:45.564Z,6.40
2023-04-27T09:15:50.666Z,6.97
2023-04-27T09:17:55.702Z,6.93
2023-04-27T09:20:08.774Z,5.67
2023-04-27T09:22:14.486Z,5.97
2023-04-27T09:24:18.004Z,5.80
2023-04-27T09:26:24.211Z,6.10
2023-04-27T09:28:28.643Z,4.70
2023-04-27T09:30:32.066Z,4.67
2023-04-27T09:32:35.507Z,7.47
2023-04-27T09:34:39.735Z,6.10
2023-04-27T09:36:43.434Z,5.97
2023-04-27T09:38:47.954Z,6.70
2023-04-27T09:40:52.718Z,5.20
2023-04-27T09:42:58.458Z,5.80
2023-04-27T09:45:02.666Z,6.63
2023-04-27T09:47:06.986Z,6.30
2023-04-27T09:49:11.637Z,6.50
2023-04-27T09:51:16.331Z,6.13
2023-04-27T09:53:21.970Z,6.93
2023-04-27T09:55:29.483Z,6.30
2023-04-27T09:57:38.590Z,6.20
2023-04-27T09:59:57.462Z,5.37
2023-04-27T10:02:13.288Z,6.07
2023-04-27T10:04:47.083Z,5.60
2023-04-27T10:07:03.224Z,6.10
2023-04-27T10:09:06.797Z,6.57
2023-04-27T10:11:17.552Z,5.97
2023-04-27T10:13:26.099Z,7.43
2023-04-27T10:15:31.106Z,6.53
2023-04-27T10:17:37.082Z,5.63
2023-04-27T10:19:40.490Z,6.07
2023-04-27T10:22:00.248Z,6.70
2023-04-27T10:24:09.547Z,5.47
2023-04-27T10:26:12.924Z,6.07
2023-04-27T10:28:18.142Z,7.20
2023-04-27T10:30:23.700Z,6.80
2023-04-27T10:32:28.467Z,5.10
2023-04-27T10:34:36.320Z,6.10
2023-04-27T10:36:41.204Z,5.70
2023-04-27T10:38:44.627Z,5.70
2023-04-27T10:40:56.993Z,5.30
2023-04-27T10:43:09.305Z,5.17
2023-04-27T10:45:13.375Z,6.00
2023-04-27T10:47:19.862Z,5.50
2023-04-27T10:49:24.840Z,5.80
2023-04-27T10:51:28.647Z,6.30
2023-04-27T10:53:35.590Z,6.37
2023-04-27T10:55:39.130Z,6.23
2023-04-27T10:57:50.289Z,7.13
2023-04-27T10:59:55.521Z,7.97
2023-04-27T11:01:59.226Z,7.53
2023-04-27T11:04:04.464Z,6.30
2023-04-27T11:06:09.350Z,5.80
2023-04-27T11:08:14.080Z,6.83
2023-04-27T11:10:18.266Z,6.33
2023-04-27T11:12:22.471Z,6.73
2023-04-27T11:14:26.443Z,5.00
2023-04-27T11:16:32.582Z,6.10
2023-04-27T11:18:39.223Z,5.67
2023-04-27T11:20:42.645Z,6.10
2023-04-27T11:22:48.182Z,5.40
2023-04-27T11:24:52.702Z,5.90
2023-04-27T11:26:56.198Z,5.37
2023-04-27T11:29:01.434Z,6.97
2023-04-27T11:31:05.432Z,7.00
2023-04-27T11:33:10.426Z,7.57
2023-04-27T11:35:15.804Z,6.20
2023-04-27T11:37:23.881Z,7.20
2023-04-27T11:39:29.886Z,6.40
2023-04-27T11:41:37.475Z,6.07
2023-04-27T11:43:43.051Z,9.07
2023-04-27T11:45:46.423Z,7.33
2023-04-27T11:47:49.891Z,7.40
2023-04-27T11:49:55.746Z,7.00
2023-04-27T11:51:59.364Z,6.53
2023-04-27T11:54:04.385Z,7.80
2023-04-27T11:56:11.720Z,6.70
2023-04-27T11:58:15.779Z,6.73
2023-04-27T12:00:20.359Z,6.50
2023-04-27T12:02:24.568Z,5.53
2023-04-27T12:04:31.083Z,7.70
2023-04-27T12:06:34.726Z,6.23
2023-04-27T12:08:38.413Z,7.57
2023-04-27T12:10:41.969Z,6.53
2023-04-27T12:12:46.952Z,7.67
2023-04-27T12:14:50.430Z,7.90
2023-04-27T12:16:54.113Z,7.40
2023-04-27T12:18:57.489Z,6.60
2023-04-27T12:21:03.049Z,6.27
2023-04-27T12:23:07.346Z,5.80
2023-04-27T12:25:10.798Z,7.83
2023-04-27T12:27:14.176Z,6.67
2023-04-27T12:29:19.158Z,7.53
2023-04-27T12:31:26.884Z,7.90
2023-04-27T12:33:31.135Z,5.70
2023-04-27T12:35:34.486Z,6.47
2023-04-27T12:37:38.105Z,7.40
2023-04-27T12:39:41.518Z,7.03
2023-04-27T12:41:45.405Z,7.80
2023-04-27T12:43:49.056Z,8.00
2023-04-27T12:45:53.807Z,7.87
2023-04-27T12:48:02.641Z,6.80
2023-04-27T12:50:09.651Z,8.07
2023-04-27T12:52:13.101Z,7.83
2023-04-27T12:54:16.677Z,7.00
2023-04-27T12:56:21.672Z,7.10
2023-04-27T12:58:27.954Z,8.03
2023-04-27T13:00:31.429Z,7.67
2023-04-27T13:02:36.595Z,7.33
2023-04-27T13:04:40.423Z,7.53
2023-04-27T13:06:43.858Z,7.47
2023-04-27T13:08:47.617Z,7.13
2023-04-27T13:10:51.073Z,8.27
2023-04-27T13:12:55.759Z,9.00
2023-04-27T13:14:59.088Z,8.40
2023-04-27T13:17:04.234Z,6.30
2023-04-27T13:19:09.024Z,8.00
2023-04-27T13:21:12.507Z,6.93
2023-04-27T13:23:16.076Z,7.50
2023-04-27T13:25:19.998Z,6.93
2023-04-27T13:27:25.213Z,8.17
2023-04-27T13:29:28.847Z,6.50
2023-04-27T13:31:33.189Z,8.13
2023-04-27T13:33:42.880Z,8.17
2023-04-27T13:35:47.642Z,5.47
2023-04-27T13:37:51.872Z,4.70
2023-04-27T13:39:55.376Z,7.50
2023-04-27T13:41:59.531Z,7.13
2023-04-27T13:44:02.906Z,8.80
2023-04-27T13:46:06.344Z,11.00
2023-04-27T13:48:09.768Z,8.47
2023-04-27T13:50:14.285Z,7.10
2023-04-27T13:52:18.991Z,6.97
2023-04-27T13:54:22.438Z,6.17
2023-04-27T13:56:25.876Z,8.00
2023-04-27T13:58:29.539Z,6.30
2023-04-27T14:00:34.728Z,5.03
2023-04-27T14:02:39.407Z,5.90
2023-04-27T14:04:43.008Z,6.03
2023-04-27T14:06:46.976Z,6.80
2023-04-27T14:08:53.230Z,8.10
2023-04-27T14:10:59.800Z,8.03
2023-04-27T14:13:03.224Z,7.67
2023-04-27T14:15:07.320Z,5.33
2023-04-27T14:17:10.699Z,6.13
2023-04-27T14:19:16.039Z,5.10
2023-04-27T14:21:19.670Z,7.50
2023-04-27T14:23:23.149Z,5.30
2023-04-27T14:25:32.464Z,6.87
2023-04-27T14:27:35.851Z,6.30
2023-04-27T14:29:39.231Z,9.10
2023-04-27T14:31:42.929Z,6.17
2023-04-27T14:33:47.747Z,6.30
2023-04-27T14:35:51.080Z,5.40
2023-04-27T14:37:56.699Z,6.10
2023-04-27T14:40:00.036Z,6.20
2023-04-27T14:42:05.034Z,6.67
2023-04-27T14:44:09.384Z,5.60
2023-04-27T14:48:22.877Z,4.90
2023-04-27T14:50:26.315Z,6.50
2023-04-27T14:52:30.133Z,5.47
2023-04-27T14:54:33.716Z,5.43
2023-04-27T14:56:37.156Z,6.90
2023-04-27T14:58:42.401Z,6.67
2023-04-27T15:00:46.008Z,4.80
2023-04-27T15:02:49.453Z,5.83
2023-04-27T15:04:53.056Z,5.80
2023-04-27T15:06:56.472Z,5.00
2023-04-27T15:08:59.928Z,6.90
2023-04-27T15:11:04.374Z,6.90
2023-04-27T15:13:07.818Z,5.90
2023-04-27T15:15:13.638Z,6.37
2023-04-27T15:17:16.950Z,6.57
2023-04-27T15:19:20.468Z,6.27
2023-04-27T15:21:23.839Z,6.17
2023-04-27T15:23:28.500Z,5.63
2023-04-27T15:25:31.913Z,5.63
2023-04-27T15:27:35.366Z,6.07
2023-04-27T15:29:38.751Z,5.23
2023-04-27T15:31:43.469Z,6.70
2023-04-27T15:33:46.831Z,5.33
2023-04-27T15:35:51.546Z,5.13
2023-04-27T15:37:54.906Z,4.90
2023-04-27T15:39:58.373Z,6.40
2023-04-27T15:42:02.050Z,5.17
2023-04-27T15:44:06.413Z,5.77
2023-04-27T15:46:09.764Z,4.20
2023-04-27T15:48:14.661Z,5.03
2023-04-27T15:50:18.660Z,4.50
2023-04-27T15:52:22.136Z,4.93
2023-04-27T15:54:25.488Z,5.00
2023-04-27T15:56:30.586Z,4.97
2023-04-27T15:58:34.309Z,5.10
2023-04-27T16:00:37.724Z,4.30
2023-04-27T16:02:41.610Z,5.57
2023-04-27T16:04:46.624Z,5.13
2023-04-27T16:06:50.034Z,5.90
2023-04-27T16:08:53.353Z,4.60
2023-04-27T16:10:56.639Z,4.10
2023-04-27T16:13:00.012Z,4.20
2023-04-27T16:15:03.532Z,4.40
2023-04-27T16:17:06.808Z,4.20
2023-04-27T16:19:10.139Z,3.60
2023-04-27T16:21:14.840Z,3.70
2023-04-27T16:23:18.227Z,4.47
2023-04-27T16:25:21.611Z,4.70
2023-04-27T16:27:25.039Z,6.37
2023-04-27T16:29:28.645Z,5.70
2023-04-27T16:31:32.009Z,4.67
2023-04-27T16:33:36.042Z,4.03
2023-04-27T16:35:39.418Z,4.60
2023-04-27T16:37:44.137Z,3.83
2023-04-27T16:39:47.517Z,4.83
2023-04-27T16:41:51.084Z,4.60
2023-04-27T16:43:54.489Z,5.40
2023-04-27T16:45:58.054Z,3.73
2023-04-27T16:48:02.195Z,4.20
2023-04-27T16:50:06.368Z,4.50
2023-04-27T16:52:09.834Z,3.60
2023-04-27T16:54:16.328Z,3.90
2023-04-27T16:56:27.202Z,5.07
2023-04-27T16:58:32.838Z,3.50
2023-04-27T17:00:36.227Z,3.97
2023-04-27T17:02:42.065Z,3.70
2023-04-27T17:04:47.370Z,3.97
2023-04-27T17:06:50.931Z,4.27
2023-04-27T17:08:54.738Z,4.10
2023-04-27T17:10:59.575Z,5.33
2023-04-27T17:13:03.188Z,3.27
2023-04-27T17:15:08.216Z,4.70
2023-04-27T17:17:11.880Z,3.40
2023-04-27T17:19:15.590Z,2.53
2023-04-27T17:21:19.379Z,3.13
2023-04-27T17:23:22.731Z,3.40
2023-04-27T17:25:26.461Z,3.90
2023-04-27T17:27:31.196Z,3.67
2023-04-27T17:29:34.514Z,3.37
2023-04-27T17:31:38.028Z,2.80
2023-04-27T17:33:42.596Z,2.60
2023-04-27T17:35:47.207Z,4.37
2023-04-27T17:37:50.585Z,3.60
2023-04-27T17:39:54.466Z,3.23
2023-04-27T17:41:57.846Z,4.20
2023-04-27T17:44:02.545Z,3.97
2023-04-27T17:46:08.463Z,3.10
2023-04-27T17:48:12.153Z,3.37
2023-04-27T17:50:15.769Z,2.87
2023-04-27T17:52:19.085Z,3.30
2023-04-27T17:54:22.423Z,3.30
2023-04-27T17:56:25.781Z,3.17
2023-04-27T17:58:29.257Z,3.20
2023-04-27T18:00:35.707Z,2.50
2023-04-27T18:02:39.515Z,3.07
2023-04-27T18:04:44.300Z,2.70
2023-04-27T18:06:50.230Z,2.57
2023-04-27T18:08:53.628Z,2.80
2023-04-27T18:10:57.005Z,3.00
2023-04-27T18:13:00.471Z,3.10
2023-04-27T18:15:06.283Z,3.83
2023-04-27T18:17:12.612Z,2.63
2023-04-27T18:19:16.340Z,2.27
2023-04-27T18:21:19.882Z,2.60
2023-04-27T18:23:23.447Z,2.53
2023-04-27T18:25:26.846Z,2.83
2023-04-27T18:27:31.761Z,2.90
2023-04-27T18:29:35.748Z,4.20
2023-04-27T18:31:39.165Z,7.50
2023-04-27T18:33:44.101Z,4.80
2023-04-27T18:35:47.524Z,4.30
2023-04-27T18:37:51.215Z,4.33
2023-04-27T18:39:54.595Z,4.60
2023-04-27T18:41:58.126Z,3.80
2023-04-27T18:44:05.796Z,4.77
2023-04-27T18:46:09.314Z,3.67
2023-04-27T18:48:14.325Z,3.40
2023-04-27T18:50:19.282Z,4.10
2023-04-27T18:52:22.799Z,4.07
2023-04-27T18:54:26.216Z,4.67
2023-04-27T18:56:29.528Z,5.27
2023-04-27T18:58:32.905Z,4.50
2023-04-27T19:00:37.985Z,5.43
2023-04-27T19:02:41.495Z,3.97
2023-04-27T19:04:52.990Z,3.80
2023-04-27T19:07:07.344Z,3.93
2023-04-27T19:09:10.811Z,5.30
2023-04-27T19:11:14.313Z,6.07
2023-04-27T19:13:17.957Z,7.93
2023-04-27T19:15:23.556Z,11.37
2023-04-27T19:17:27.174Z,9.70
2023-04-27T19:19:30.862Z,5.63
2023-04-27T19:21:34.276Z,5.17
2023-04-27T19:23:39.111Z,4.80
2023-04-27T19:25:42.650Z,4.30
2023-04-27T19:27:46.087Z,3.60
2023-04-27T19:29:51.301Z,4.13
2023-04-27T19:31:54.757Z,4.00
2023-04-27T19:34:04.063Z,3.30
2023-04-27T19:36:08.048Z,3.60
2023-04-27T19:38:11.562Z,3.63
2023-04-27T19:40:16.799Z,3.13
2023-04-27T19:42:20.503Z,3.60
2023-04-27T19:44:23.794Z,3.50
2023-04-27T19:46:27.453Z,3.60
2023-04-27T19:48:31.221Z,4.50
2023-04-27T19:50:35.835Z,4.00
2023-04-27T19:52:39.250Z,3.60
2023-04-27T19:54:42.912Z,3.37
2023-04-27T19:56:47.756Z,3.00
2023-04-27T19:58:51.094Z,4.23
2023-04-27T20:00:54.491Z,3.47
2023-04-27T20:11:10.568Z,6.93
2023-04-27T20:14:28.353Z,6.07
2023-04-27T20:17:45.985Z,4.93
2023-04-27T20:31:49.276Z,4.20
2023-04-27T20:38:41.312Z,3.40
2023-04-27T20:45:33.991Z,3.20
2023-04-27T20:52:28.740Z,4.57
2023-04-27T20:59:22.855Z,3.80
2023-04-27T21:02:40.031Z,3.83
2023-04-27T21:24:07.103Z,3.77
2023-04-27T21:27:25.257Z,4.63
2023-04-27T21:30:42.707Z,5.50
2023-04-27T21:37:35.041Z,5.40
2023-04-27T21:40:52.206Z,4.77
2023-04-27T21:44:10.408Z,4.07
2023-04-27T21:50:27.400Z,4.43
2023-04-27T21:53:25.451Z,4.77
2023-04-27T21:56:24.795Z,3.80
2023-04-27T21:59:05.262Z,5.17
2023-04-27T22:02:06.682Z,3.87
2023-04-27T22:04:47.744Z,4.40
2023-04-27T22:07:47.278Z,4.00
2023-04-27T22:10:29.425Z,4.10
2023-04-27T22:13:46.266Z,4.30
2023-04-27T22:16:46.218Z,3.53
2023-04-27T22:19:44.392Z,3.80
2023-04-27T22:22:06.681Z,3.53
2023-04-27T22:24:30.174Z,3.67
2023-04-27T22:26:52.240Z,3.50
2023-04-27T22:29:14.364Z,4.30
2023-04-27T22:31:36.449Z,4.10
2023-04-27T22:33:58.487Z,4.30
2023-04-27T22:36:20.761Z,4.30
2023-04-27T22:38:42.860Z,3.80
2023-04-27T22:41:06.534Z,3.80
2023-04-27T22:43:28.858Z,3.67
2023-04-27T22:45:50.996Z,5.10
2023-04-27T22:48:13.819Z,4.20
2023-04-27T22:50:35.679Z,3.37
2023-04-27T22:52:57.841Z,3.70
2023-04-27T22:55:19.823Z,3.40
2023-04-27T22:57:43.236Z,3.33
2023-04-27T23:00:08.893Z,2.70
2023-04-27T23:02:31.282Z,4.17
2023-04-27T23:04:53.198Z,2.93
2023-04-27T23:07:17.926Z,3.40
2023-04-27T23:09:44.291Z,4.43
2023-04-27T23:12:07.762Z,4.00
2023-04-27T23:14:34.470Z,3.80
2023-04-27T23:16:57.476Z,3.40
2023-04-27T23:19:19.747Z,3.60
2023-04-27T23:21:41.681Z,3.10
2023-04-27T23:24:03.845Z,3.07
2023-04-27T23:26:26.068Z,3.97
2023-04-27T23:28:49.692Z,3.80
2023-04-27T23:31:12.854Z,3.83
2023-04-27T23:33:34.557Z,3.60
2023-04-27T23:35:56.379Z,3.60
2023-04-27T23:38:18.469Z,3.23
2023-04-27T23:40:40.511Z,2.67
2023-04-27T23:43:02.771Z,3.37
2023-04-27T23:45:25.535Z,3.67
2023-04-27T23:47:49.066Z,3.47
2023-04-27T23:50:11.724Z,2.90
2023-04-27T23:52:33.894Z,3.07
2023-04-27T23:54:56.132Z,4.03
2023-04-27T23:57:17.790Z,5.57
2023-04-27T23:59:40.544Z,3.93
